EGCC/MAN METAR and TAF weather

Enter ICAO airport designator
Station Type Date Time Source
EGCC METAR 2018/10/21 04:20 UTC NOAA

EGCC 210420Z AUTO VRB02KT 9999 OVC016 10/09 Q1027 NOSIG


Station Type Date Time Source
EGCC Decoded METAR 2018/10/21 04:20 UTC NOAA

Manchester Airport, United Kingdom (EGCC) 53-21N 002-17W 0M
Oct 21, 2018 - 12:20 AM EDT / 2018.10.21 0420 UTC
Wind: Variable at 2 MPH (2 KT):0
Visibility: greater than 7 mile(s):0
Sky conditions: overcast
Temperature: 50 F (10 C)
Dew Point: 48 F (9 C)
Relative Humidity: 93%
Pressure (altimeter): 30.33 in. Hg (1027 hPa)
ob: EGCC 210420Z AUTO VRB02KT 9999 OVC016 10/09 Q1027 NOSIG
cycle: 4

Station Type Date Time Source
EGCC TAF 2018/10/20 18:09 UTC NOAA

TAF EGCC 201658Z 2018/2124 19004KT 9999 FEW045 PROB30
TEMPO 2021/2106 8000 BKN012
TEMPO 2106/2115 8000 -RA BKN012 PROB30 2106/2109 4000 DZ BR BKN005
BECMG 2112/2115 32010KT


Example: see airport list